createdAt,value
2022-10-22T00:01:03.551Z,98583.31
2022-10-22T00:03:33.020Z,98584.72
2022-10-22T00:06:00.988Z,98618.41
2022-10-22T00:08:29.008Z,98623.31
2022-10-22T00:10:57.061Z,98624.28
2022-10-22T00:13:25.432Z,98618.22
2022-10-22T00:15:53.544Z,98640.28
2022-10-22T00:18:21.611Z,98636.66
2022-10-22T00:20:51.064Z,98633.56
2022-10-22T00:23:19.034Z,98625.16
2022-10-22T00:25:47.031Z,98622.22
2022-10-22T00:28:15.056Z,98620.38
2022-10-22T00:30:43.156Z,98616.44
2022-10-22T00:33:11.154Z,98529.91
2022-10-22T00:35:39.404Z,98619.53
2022-10-22T00:38:08.765Z,98621.78
2022-10-22T00:40:36.765Z,98605.25
2022-10-22T00:43:04.825Z,98601.28
2022-10-22T00:45:32.965Z,98613.38
2022-10-22T00:48:05.846Z,98618.00
2022-10-22T00:50:37.187Z,98620.97
2022-10-22T00:53:08.289Z,98604.38
2022-10-22T00:55:38.839Z,98620.50
2022-10-22T00:58:07.047Z,98611.81
2022-10-22T01:00:35.059Z,98601.78
2022-10-22T01:03:03.212Z,98633.81
2022-10-22T01:05:34.289Z,98636.38
2022-10-22T01:08:02.306Z,98580.56
2022-10-22T01:10:47.511Z,98629.59
2022-10-22T01:13:26.176Z,98640.44
2022-10-22T01:16:00.960Z,98628.47
2022-10-22T01:18:38.242Z,98599.97
2022-10-22T01:21:16.726Z,98574.41
2022-10-22T01:24:18.273Z,98598.72
2022-10-22T01:27:01.485Z,98602.91
2022-10-22T01:29:35.207Z,98604.00
2022-10-22T01:32:09.369Z,98601.75
2022-10-22T01:34:40.587Z,98587.72
2022-10-22T01:37:11.781Z,98613.22
2022-10-22T01:39:40.902Z,98633.28
2022-10-22T01:42:08.981Z,98668.47
2022-10-22T01:44:38.425Z,98663.72
2022-10-22T01:47:18.955Z,98651.81
2022-10-22T01:50:25.416Z,98661.06
2022-10-22T01:53:18.748Z,98649.25
2022-10-22T01:55:57.938Z,98642.97
2022-10-22T01:58:40.428Z,98660.00
2022-10-22T02:01:17.097Z,98659.59
2022-10-22T02:03:52.643Z,98660.13
2022-10-22T02:06:24.371Z,98668.41
2022-10-22T02:08:54.729Z,98638.75
2022-10-22T02:11:22.845Z,98651.72
2022-10-22T02:13:54.397Z,98630.19
2022-10-22T02:16:29.635Z,98657.19
2022-10-22T02:19:01.864Z,98667.63
2022-10-22T02:21:30.080Z,98639.91
2022-10-22T02:23:58.033Z,98668.34
2022-10-22T02:26:35.183Z,98658.47
2022-10-22T02:29:12.285Z,98697.81
2022-10-22T02:31:46.500Z,98654.94
2022-10-22T02:34:18.802Z,98670.28
2022-10-22T02:36:50.408Z,98664.25
2022-10-22T02:39:19.838Z,98657.50
2022-10-22T02:41:47.940Z,98647.25
2022-10-22T02:44:16.033Z,98658.66
2022-10-22T02:46:45.670Z,98654.03
2022-10-22T02:49:13.677Z,98647.56
2022-10-22T02:51:41.749Z,98633.28
2022-10-22T02:54:09.725Z,98630.19
2022-10-22T02:56:37.727Z,98626.22
2022-10-22T02:59:05.698Z,98625.81
2022-10-22T03:01:33.698Z,98629.59
2022-10-22T03:04:03.129Z,98631.00
2022-10-22T03:06:31.133Z,98643.78
2022-10-22T03:08:59.411Z,98611.00
2022-10-22T03:11:27.466Z,98635.75
2022-10-22T03:13:55.405Z,98621.44
2022-10-22T03:16:23.373Z,98623.41
2022-10-22T03:18:51.343Z,98629.16
2022-10-22T03:21:29.561Z,98611.00
2022-10-22T03:23:57.998Z,98618.72
2022-10-22T03:26:26.585Z,98607.81
2022-10-22T03:28:55.770Z,98619.38
2022-10-22T03:31:23.755Z,98635.50
2022-10-22T03:33:51.721Z,98639.38
2022-10-22T03:36:19.875Z,98632.09
2022-10-22T03:38:49.626Z,98639.59
2022-10-22T03:41:17.666Z,98637.56
2022-10-22T03:43:49.793Z,98597.19
2022-10-22T03:46:17.814Z,98632.47
2022-10-22T03:48:45.812Z,98628.19
2022-10-22T03:51:14.039Z,98627.41
2022-10-22T03:53:42.013Z,98636.22
2022-10-22T03:56:12.929Z,98641.25
2022-10-22T03:58:42.429Z,98653.34
2022-10-22T04:01:13.168Z,98641.72
2022-10-22T04:03:41.528Z,98649.47
2022-10-22T04:06:12.275Z,98646.06
2022-10-22T04:08:41.645Z,98645.25
2022-10-22T04:11:11.737Z,98639.22
2022-10-22T04:13:39.955Z,98641.16
2022-10-22T04:16:09.498Z,98659.38
2022-10-22T04:18:37.649Z,98665.78
2022-10-22T04:21:06.112Z,98673.97
2022-10-22T04:23:34.165Z,98670.47
2022-10-22T04:26:03.610Z,98675.59
2022-10-22T04:28:33.100Z,98669.72
2022-10-22T04:31:01.112Z,98661.56
2022-10-22T04:33:29.044Z,98654.97
2022-10-22T04:35:57.079Z,98683.03
2022-10-22T04:38:25.097Z,98683.94
2022-10-22T04:40:53.068Z,98670.03
2022-10-22T04:43:21.019Z,98667.13
2022-10-22T04:45:50.454Z,98664.84
2022-10-22T04:48:18.417Z,98608.59
2022-10-22T04:50:46.367Z,98675.22
2022-10-22T04:53:14.305Z,98671.66
2022-10-22T04:55:42.281Z,98690.03
2022-10-22T04:58:10.256Z,98676.31
2022-10-22T05:00:38.271Z,98680.94
2022-10-22T05:03:07.672Z,98664.50
2022-10-22T05:05:35.680Z,98659.28
2022-10-22T05:08:03.656Z,98669.31
2022-10-22T05:10:31.671Z,98658.56
2022-10-22T05:12:59.663Z,98668.34
2022-10-22T05:15:27.657Z,98673.66
2022-10-22T05:17:55.590Z,98681.72
2022-10-22T05:20:24.965Z,98675.09
2022-10-22T05:22:52.902Z,98690.63
2022-10-22T05:25:20.920Z,98675.16
2022-10-22T05:27:50.968Z,98695.88
2022-10-22T05:30:19.105Z,98655.59
2022-10-22T05:32:47.307Z,98688.41
2022-10-22T05:35:15.409Z,98690.69
2022-10-22T05:37:44.739Z,98701.41
2022-10-22T05:40:26.537Z,98710.78
2022-10-22T05:43:00.405Z,98706.69
2022-10-22T05:45:28.401Z,98705.84
2022-10-22T05:47:56.362Z,98712.13
2022-10-22T05:50:24.319Z,98715.44
2022-10-22T05:52:53.675Z,98706.06
2022-10-22T05:55:21.699Z,98705.34
2022-10-22T05:57:50.337Z,98724.16
2022-10-22T06:00:18.804Z,98716.22
2022-10-22T06:02:51.624Z,98736.34
2022-10-22T06:05:19.670Z,98714.41
2022-10-22T06:07:48.069Z,98711.13
2022-10-22T06:10:20.880Z,98731.75
2022-10-22T06:12:49.756Z,98710.09
2022-10-22T06:15:20.275Z,98734.53
2022-10-22T06:17:48.963Z,98734.91
2022-10-22T06:20:17.103Z,98735.97
2022-10-22T06:22:45.091Z,98731.56
2022-10-22T06:25:14.279Z,98738.28
2022-10-22T06:27:43.647Z,98733.84
2022-10-22T06:30:12.405Z,98743.63
2022-10-22T06:32:41.578Z,98727.50
2022-10-22T06:35:09.879Z,98740.59
2022-10-22T06:37:38.035Z,98752.34
2022-10-22T06:40:06.922Z,98741.53
2022-10-22T06:42:34.938Z,98756.75
2022-10-22T06:45:04.542Z,98770.94
2022-10-22T06:47:33.613Z,98747.69
2022-10-22T06:50:01.898Z,98768.31
2022-10-22T06:52:30.041Z,98757.06
2022-10-22T06:54:58.168Z,98760.44
2022-10-22T06:57:26.551Z,98779.28
2022-10-22T06:59:55.297Z,98768.66
2022-10-22T07:02:27.410Z,98787.63
2022-10-22T07:04:58.322Z,98758.50
2022-10-22T07:07:27.285Z,98796.06
2022-10-22T07:09:56.227Z,98704.88
2022-10-22T07:12:24.265Z,98780.09
2022-10-22T07:14:52.228Z,98801.66
2022-10-22T07:17:20.383Z,98797.41
2022-10-22T07:19:52.637Z,98726.50
2022-10-22T07:22:20.859Z,98759.44
2022-10-22T07:24:49.152Z,98786.03
2022-10-22T07:27:17.507Z,98718.75
2022-10-22T07:32:50.164Z,98729.63
2022-10-22T07:35:20.204Z,98792.72
2022-10-22T07:37:48.552Z,98784.66
2022-10-22T07:43:28.288Z,98840.66
2022-10-22T07:46:00.052Z,98724.09
2022-10-22T07:48:29.033Z,98738.25
2022-10-22T07:50:59.083Z,98736.03
2022-10-22T07:53:59.378Z,98843.22
2022-10-22T07:56:27.685Z,98832.78
2022-10-22T07:58:56.045Z,98734.72
2022-10-22T08:01:24.445Z,98744.00
2022-10-22T08:04:11.224Z,98748.69
2022-10-22T08:23:03.851Z,98778.16
2022-10-22T08:27:58.802Z,98781.72
2022-10-22T08:30:30.286Z,98737.88
2022-10-22T08:33:01.939Z,98745.06
2022-10-22T08:56:26.036Z,98757.69
2022-10-22T08:59:28.409Z,98854.59
2022-10-22T09:03:04.308Z,98766.84
2022-10-22T09:05:40.949Z,98858.22
2022-10-22T09:08:12.487Z,98867.38
2022-10-22T09:10:47.599Z,98863.41
2022-10-22T09:13:19.432Z,98869.84
2022-10-22T09:15:50.562Z,98869.66
2022-10-22T09:18:31.989Z,98878.94
2022-10-22T09:21:04.488Z,98877.69
2022-10-22T09:23:40.147Z,98870.69
2022-10-22T09:26:15.032Z,98879.22
2022-10-22T09:28:43.282Z,98882.72
2022-10-22T09:31:13.724Z,98873.50
2022-10-22T09:33:43.499Z,98863.97
2022-10-22T09:36:15.370Z,98891.03
2022-10-22T09:38:49.661Z,98890.41
2022-10-22T09:41:20.906Z,98895.53
2022-10-22T09:43:49.107Z,98900.97
2022-10-22T09:46:20.071Z,98905.50
2022-10-22T09:48:51.329Z,98904.84
2022-10-22T09:51:22.069Z,98893.94
2022-10-22T09:53:58.057Z,98900.22
2022-10-22T09:56:30.351Z,98895.88
2022-10-22T09:58:59.536Z,98892.84
2022-10-22T10:01:29.890Z,98900.78
2022-10-22T10:04:08.444Z,98913.25
2022-10-22T10:06:39.271Z,98897.25
2022-10-22T10:09:14.564Z,98896.06
2022-10-22T10:11:49.487Z,98894.19
2022-10-22T10:14:22.891Z,98889.78
2022-10-22T10:17:04.302Z,98891.34
2022-10-22T10:19:44.836Z,98894.88
2022-10-22T10:22:32.122Z,98894.09
2022-10-22T10:25:15.467Z,98893.47
2022-10-22T10:27:50.535Z,98901.28
2022-10-22T10:30:21.282Z,98891.44
2022-10-22T10:33:00.737Z,98891.16
2022-10-22T10:35:32.453Z,98898.91
2022-10-22T10:38:19.951Z,98903.03
2022-10-22T10:40:52.659Z,98907.78
2022-10-22T10:43:30.943Z,98889.94
2022-10-22T10:46:07.942Z,98905.44
2022-10-22T10:48:50.682Z,98901.53
2022-10-22T10:51:36.872Z,98901.22
2022-10-22T10:54:23.135Z,98881.59
2022-10-22T10:56:56.882Z,98895.09
2022-10-22T10:59:33.539Z,98899.00
2022-10-22T11:02:17.694Z,98888.91
2022-10-22T11:05:08.892Z,98870.31
2022-10-22T11:07:43.211Z,98894.91
2022-10-22T11:10:20.943Z,98890.94
2022-10-22T11:12:52.515Z,98882.16
2022-10-22T11:15:29.338Z,98882.13
2022-10-22T11:18:04.146Z,98886.19
2022-10-22T11:20:45.270Z,98869.72
2022-10-22T11:23:19.870Z,98875.47
2022-10-22T11:25:50.914Z,98892.47
2022-10-22T11:28:25.612Z,98881.88
2022-10-22T11:31:02.028Z,98889.59
2022-10-22T11:33:39.087Z,98890.13
2022-10-22T11:36:09.499Z,98884.56
2022-10-22T11:38:38.302Z,98883.50
2022-10-22T11:41:08.671Z,98876.81
2022-10-22T11:43:57.299Z,98886.34
2022-10-22T11:46:39.541Z,98888.22
2022-10-22T11:49:20.152Z,98875.78
2022-10-22T11:51:48.476Z,98881.97
2022-10-22T11:54:33.209Z,98882.00
2022-10-22T11:57:20.459Z,98873.75
2022-10-22T11:59:53.817Z,98872.03
2022-10-22T12:02:46.697Z,98878.59
2022-10-22T12:05:37.970Z,98855.38
2022-10-22T12:08:25.254Z,98870.19
2022-10-22T12:11:07.458Z,98875.34
2022-10-22T12:13:58.785Z,98868.47
2022-10-22T12:16:44.116Z,98851.47
2022-10-22T12:19:25.611Z,98870.84
2022-10-22T12:21:55.868Z,98861.47
2022-10-22T12:24:26.965Z,98797.34
2022-10-22T12:26:54.978Z,98848.72
2022-10-22T12:29:26.664Z,98868.38
2022-10-22T12:31:55.137Z,98867.28
2022-10-22T12:34:26.292Z,98864.13
2022-10-22T12:36:55.365Z,98865.75
2022-10-22T12:39:27.956Z,98860.59
2022-10-22T12:41:56.348Z,98857.94
2022-10-22T12:44:24.431Z,98848.78
2022-10-22T12:46:56.052Z,98851.13
2022-10-22T12:49:34.655Z,98850.78
2022-10-22T12:52:08.676Z,98848.03
2022-10-22T12:54:40.366Z,98843.34
2022-10-22T12:57:14.606Z,98843.97
2022-10-22T12:59:48.776Z,98843.91
2022-10-22T13:02:22.710Z,98826.16
2022-10-22T13:05:22.427Z,98831.41
2022-10-22T13:07:53.320Z,98812.53
2022-10-22T13:10:25.900Z,98824.41
2022-10-22T13:12:57.837Z,98802.75
2022-10-22T13:15:38.963Z,98823.88
2022-10-22T13:18:17.044Z,98824.94
2022-10-22T13:20:54.743Z,98823.66
2022-10-22T13:23:24.463Z,98827.63
2022-10-22T13:26:00.920Z,98805.41
2022-10-22T13:28:30.136Z,98827.97
2022-10-22T13:31:00.290Z,98822.72
2022-10-22T13:33:31.879Z,98800.94
2022-10-22T13:36:01.642Z,98818.13
2022-10-22T13:38:30.323Z,98821.84
2022-10-22T13:40:59.376Z,98810.31
2022-10-22T13:43:27.865Z,98821.09
2022-10-22T13:45:59.220Z,98813.94
2022-10-22T13:48:29.539Z,98819.50
2022-10-22T13:50:57.886Z,98789.03
2022-10-22T13:53:29.295Z,98815.97
2022-10-22T13:55:57.612Z,98814.22
2022-10-22T13:58:26.172Z,98818.50
2022-10-22T14:00:57.161Z,98784.72
2022-10-22T14:03:29.621Z,98808.81
2022-10-22T14:05:58.304Z,98801.44
2022-10-22T14:08:29.147Z,98794.00
2022-10-22T14:10:57.281Z,98809.63
2022-10-22T14:13:26.716Z,98802.28
2022-10-22T14:15:54.949Z,98761.94
2022-10-22T14:18:27.476Z,98742.78
2022-10-22T14:20:57.700Z,98792.94
2022-10-22T14:23:28.682Z,98796.13
2022-10-22T14:25:57.151Z,98796.03
2022-10-22T14:28:25.111Z,98768.34
2022-10-22T14:30:53.562Z,98797.53
2022-10-22T14:33:28.885Z,98793.66
2022-10-22T14:35:58.819Z,98807.03
2022-10-22T14:38:28.403Z,98801.34
2022-10-22T14:40:59.788Z,98797.19
2022-10-22T14:43:31.288Z,98763.94
2022-10-22T14:46:00.025Z,98774.75
2022-10-22T14:48:28.266Z,98797.41
2022-10-22T14:50:56.675Z,98717.53
2022-10-22T14:53:24.865Z,98752.13
2022-10-22T14:55:58.644Z,98708.66
2022-10-22T14:58:27.268Z,98741.75
2022-10-22T15:00:55.618Z,98733.00
2022-10-22T15:03:23.852Z,98691.34
2022-10-22T15:05:56.007Z,98744.63
2022-10-22T15:08:24.262Z,98715.84
2022-10-22T15:11:01.487Z,98711.63
2022-10-22T15:13:30.506Z,98753.72
2022-10-22T15:15:59.897Z,98690.44
2022-10-22T15:18:28.891Z,98764.56
2022-10-22T15:20:59.014Z,98743.69
2022-10-22T15:23:27.430Z,98761.91
2022-10-22T15:25:56.320Z,98774.34
2022-10-22T15:28:43.886Z,98710.53
2022-10-22T15:31:53.961Z,98728.13
2022-10-22T15:34:30.389Z,98715.81
2022-10-22T15:37:00.738Z,98753.97
2022-10-22T15:39:29.515Z,98800.41
2022-10-22T15:41:58.799Z,98795.56
2022-10-22T15:44:37.638Z,98806.06
2022-10-22T15:47:11.024Z,98725.91
2022-10-22T15:49:44.005Z,98720.72
2022-10-22T15:52:30.518Z,98746.78
2022-10-22T15:55:31.533Z,98776.19
2022-10-22T15:58:08.311Z,98765.06
2022-10-22T16:00:40.568Z,98777.47
2022-10-22T16:03:09.211Z,98728.56
2022-10-22T16:05:54.607Z,98725.44
2022-10-22T16:08:22.848Z,98798.72
2022-10-22T16:10:51.071Z,98765.03
2022-10-22T16:13:21.040Z,98759.56
2022-10-22T16:15:50.666Z,98770.56
2022-10-22T16:18:18.981Z,98754.25
2022-10-22T16:20:47.443Z,98785.03
2022-10-22T16:23:18.796Z,98805.84
2022-10-22T16:25:47.187Z,98787.50
2022-10-22T16:28:15.787Z,98717.31
2022-10-22T16:30:43.859Z,98778.94
2022-10-22T16:33:13.417Z,98760.78
2022-10-22T16:35:42.699Z,98746.25
2022-10-22T16:38:12.263Z,98805.19
2022-10-22T16:40:42.239Z,98753.47
2022-10-22T16:43:10.855Z,98807.72
2022-10-22T16:45:39.318Z,98808.03
2022-10-22T16:48:07.467Z,98792.63
2022-10-22T16:50:40.211Z,98810.38
2022-10-22T16:53:08.223Z,98721.91
2022-10-22T16:55:37.334Z,98772.56
2022-10-22T16:58:05.696Z,98792.31
2022-10-22T17:00:34.344Z,98827.72
2022-10-22T17:03:02.370Z,98758.53
2022-10-22T17:05:31.946Z,98786.38
2022-10-22T17:08:01.389Z,98731.53
2022-10-22T17:10:29.509Z,98747.41
2022-10-22T17:12:57.517Z,98807.94
2022-10-22T17:15:25.546Z,98790.47
2022-10-22T17:17:53.869Z,98797.22
2022-10-22T17:20:21.918Z,98801.50
2022-10-22T17:22:50.963Z,98804.28
2022-10-22T17:25:25.602Z,98807.69
2022-10-22T17:27:55.303Z,98787.16
2022-10-22T17:30:27.250Z,98792.78
2022-10-22T17:32:55.682Z,98760.44
2022-10-22T17:35:23.993Z,98738.81
2022-10-22T17:37:52.130Z,98797.44
2022-10-22T17:40:21.784Z,98761.53
2022-10-22T17:42:50.018Z,98789.00
2022-10-22T17:45:18.290Z,98702.72
2022-10-22T17:47:47.733Z,98783.81
2022-10-22T17:50:15.985Z,98792.00
2022-10-22T17:52:44.344Z,98732.84
2022-10-22T17:55:13.677Z,98757.72
2022-10-22T17:57:43.337Z,98727.94
2022-10-22T18:00:16.196Z,98736.81
2022-10-22T19:31:37.395Z,98804.31
2022-10-22T19:34:21.534Z,98814.44
2022-10-22T19:37:10.408Z,98787.31
2022-10-22T20:44:48.969Z,98792.47
2022-10-22T20:47:18.824Z,98820.78
2022-10-22T20:49:55.988Z,98817.59
2022-10-22T20:55:23.602Z,98825.31
2022-10-22T20:57:52.039Z,98795.28
2022-10-22T21:00:20.291Z,98726.53
2022-10-22T21:03:01.939Z,98766.47
2022-10-22T21:08:28.808Z,98778.75
2022-10-22T21:14:38.885Z,98815.53
2022-10-22T21:17:08.379Z,98798.00
2022-10-22T21:19:38.134Z,98796.72
2022-10-22T21:22:06.203Z,98807.50
2022-10-22T21:24:34.250Z,98788.91
2022-10-22T21:27:03.372Z,98807.81
2022-10-22T21:29:32.361Z,98742.97
2022-10-22T21:32:00.384Z,98807.81
2022-10-22T21:34:29.889Z,98754.69
2022-10-22T21:37:00.446Z,98735.31
2022-10-22T21:39:30.328Z,98720.66
2022-10-22T21:42:01.295Z,98799.84
2022-10-22T21:44:33.298Z,98795.84
2022-10-22T21:47:04.531Z,98720.06
2022-10-22T21:49:41.176Z,98808.00
2022-10-22T21:52:15.369Z,98789.63
2022-10-22T21:54:45.432Z,98802.13
2022-10-22T21:57:16.716Z,98805.16
2022-10-22T21:59:45.318Z,98804.91
2022-10-22T22:02:15.319Z,98807.63
2022-10-22T22:04:46.817Z,98811.66
2022-10-22T22:07:18.901Z,98791.06
2022-10-22T22:09:50.174Z,98798.94
2022-10-22T22:12:19.748Z,98823.63
2022-10-22T22:14:50.114Z,98814.81
2022-10-22T22:17:18.701Z,98792.09
2022-10-22T22:19:50.245Z,98814.84
2022-10-22T22:22:25.199Z,98795.34
2022-10-22T22:24:59.217Z,98812.47
2022-10-22T22:27:31.259Z,98817.84
2022-10-22T22:29:59.340Z,98811.81
2022-10-22T22:32:27.348Z,98806.88
2022-10-22T22:34:55.307Z,98807.13
2022-10-22T22:37:24.706Z,98803.38
2022-10-22T22:39:52.708Z,98794.34
2022-10-22T22:42:20.736Z,98802.19
2022-10-22T22:44:48.744Z,98809.47
2022-10-22T22:47:16.826Z,98766.97
2022-10-22T22:49:44.851Z,98757.59
2022-10-22T22:52:12.936Z,98808.50
2022-10-22T22:54:42.334Z,98759.03
2022-10-22T22:57:10.357Z,98818.88
2022-10-22T22:59:38.349Z,98817.13
2022-10-22T23:02:06.778Z,98745.00
2022-10-22T23:04:35.003Z,98747.53
2022-10-22T23:07:03.153Z,98755.88
2022-10-22T23:09:31.223Z,98752.38
2022-10-22T23:12:00.658Z,98785.47
2022-10-22T23:14:28.659Z,98801.78
2022-10-22T23:16:56.797Z,98791.34
2022-10-22T23:19:25.290Z,98785.56
2022-10-22T23:21:55.299Z,98782.69
2022-10-22T23:24:25.658Z,98786.03
2022-10-22T23:26:55.545Z,98794.97
2022-10-22T23:29:27.379Z,98737.31
2022-10-22T23:31:56.957Z,98719.22
2022-10-22T23:34:26.372Z,98805.31
2022-10-22T23:36:55.137Z,98797.81
2022-10-22T23:39:25.410Z,98796.25
2022-10-22T23:41:54.069Z,98788.22
2022-10-22T23:44:22.944Z,98795.47
2022-10-22T23:46:52.585Z,98738.72
2022-10-22T23:49:20.651Z,98724.94
2022-10-22T23:51:48.711Z,98762.22
2022-10-22T23:54:18.784Z,98785.59
2022-10-22T23:56:48.093Z,98724.72
2022-10-22T23:59:16.528Z,98749.69
